createdAt,value
2019-01-06T00:02:05.013Z,99.20
2019-01-06T00:05:01.227Z,99.20
2019-01-06T00:07:52.771Z,99.20
2019-01-06T00:10:48.918Z,99.20
2019-01-06T00:13:45.206Z,99.20
2019-01-06T00:16:47.920Z,99.10
2019-01-06T00:19:44.947Z,99.00
2019-01-06T00:22:41.167Z,98.90
2019-01-06T00:25:37.279Z,99.00
2019-01-06T00:28:33.402Z,99.10
2019-01-06T00:31:32.689Z,99.10
2019-01-06T00:34:28.772Z,99.10
2019-01-06T00:37:24.976Z,99.20
2019-01-06T00:40:37.531Z,99.20
2019-01-06T00:43:26.665Z,99.10
2019-01-06T00:46:23.496Z,99.00
2019-01-06T00:49:19.587Z,99.10
2019-01-06T00:52:30.706Z,99.00
2019-01-06T00:55:30.520Z,98.90
2019-01-06T00:58:26.758Z,98.90
2019-01-06T01:01:22.383Z,98.50
2019-01-06T01:04:18.695Z,98.40
2019-01-06T01:07:14.910Z,98.20
2019-01-06T01:10:11.082Z,98.10
2019-01-06T01:13:26.768Z,98.00
2019-01-06T01:16:25.892Z,97.80
2019-01-06T01:19:19.878Z,97.80
2019-01-06T01:22:19.421Z,97.60
2019-01-06T01:25:21.734Z,97.40
2019-01-06T01:28:18.003Z,97.20
2019-01-06T01:31:14.110Z,97.00
2019-01-06T01:34:16.644Z,96.60
2019-01-06T01:37:12.844Z,96.50
2019-01-06T01:40:09.083Z,96.20
2019-01-06T01:43:05.232Z,96.00
2019-01-06T01:46:04.438Z,96.00
2019-01-06T01:49:00.639Z,95.70
2019-01-06T01:51:52.967Z,95.50
2019-01-06T01:55:09.101Z,95.40
2019-01-06T01:58:05.309Z,95.10
2019-01-06T02:01:02.643Z,95.00
2019-01-06T02:04:03.250Z,94.80
2019-01-06T02:07:10.713Z,95.00
2019-01-06T02:10:09.818Z,94.50
2019-01-06T02:13:18.826Z,94.30
2019-01-06T02:16:15.069Z,94.30
2019-01-06T02:19:14.091Z,94.00
2019-01-06T02:22:10.328Z,94.20
2019-01-06T02:25:06.545Z,94.20
2019-01-06T02:28:06.632Z,94.20
2019-01-06T02:31:02.867Z,94.30
2019-01-06T02:34:18.685Z,94.50
2019-01-06T02:37:14.886Z,94.70
2019-01-06T02:40:11.110Z,94.60
2019-01-06T02:43:21.693Z,94.70
2019-01-06T02:46:17.862Z,94.70
2019-01-06T02:49:14.105Z,94.70
2019-01-06T02:52:10.395Z,94.80
2019-01-06T02:55:06.629Z,94.90
2019-01-06T02:58:02.847Z,95.10
2019-01-06T03:01:09.176Z,95.10
2019-01-06T03:04:12.109Z,95.20
2019-01-06T03:07:04.730Z,95.30
2019-01-06T03:10:00.995Z,95.40
2019-01-06T03:12:57.226Z,95.30
2019-01-06T03:15:56.767Z,95.40
2019-01-06T03:18:56.254Z,95.40
2019-01-06T03:21:52.471Z,95.60
2019-01-06T03:24:55.143Z,95.50
2019-01-06T03:27:58.029Z,95.50
2019-01-06T03:31:01.932Z,95.50
2019-01-06T03:34:01.288Z,95.60
2019-01-06T03:36:56.501Z,95.60
2019-01-06T03:39:52.704Z,95.60
2019-01-06T03:42:48.905Z,95.60
2019-01-06T03:45:45.084Z,95.80
2019-01-06T03:48:50.897Z,95.50
2019-01-06T03:51:47.060Z,95.60
2019-01-06T03:54:43.265Z,95.60
2019-01-06T03:57:58.839Z,95.60
2019-01-06T04:00:54.293Z,95.60
2019-01-06T04:03:53.745Z,95.70
2019-01-06T04:06:49.806Z,95.70
2019-01-06T04:10:02.558Z,95.70
2019-01-06T04:13:01.925Z,95.80
2019-01-06T04:15:58.131Z,95.80
2019-01-06T04:18:57.178Z,95.90
2019-01-06T04:21:59.996Z,95.90
2019-01-06T04:25:09.846Z,95.90
2019-01-06T04:28:21.915Z,95.80
2019-01-06T04:31:24.673Z,96.10
2019-01-06T04:34:20.736Z,95.80
2019-01-06T04:37:16.876Z,95.80
2019-01-06T04:40:12.596Z,95.70
2019-01-06T04:43:11.889Z,95.60
2019-01-06T04:46:11.191Z,95.70
2019-01-06T04:49:16.544Z,95.70
2019-01-06T04:52:11.059Z,95.70
2019-01-06T04:55:07.319Z,95.80
2019-01-06T04:58:03.525Z,95.80
2019-01-06T05:01:07.341Z,95.80
2019-01-06T05:04:03.510Z,95.70
2019-01-06T05:07:06.445Z,95.70
2019-01-06T05:10:09.442Z,95.80
2019-01-06T05:13:10.261Z,95.60
2019-01-06T05:16:00.887Z,95.70
2019-01-06T05:19:07.241Z,95.60
2019-01-06T05:22:03.401Z,95.70
2019-01-06T05:24:59.591Z,95.70
2019-01-06T05:27:55.754Z,95.70
2019-01-06T05:30:55.045Z,95.70
2019-01-06T05:33:51.284Z,95.80
2019-01-06T05:37:07.263Z,95.90
2019-01-06T05:40:13.515Z,95.80
2019-01-06T05:43:12.834Z,95.80
2019-01-06T05:46:25.410Z,95.70
2019-01-06T05:49:30.621Z,95.90
2019-01-06T05:52:26.616Z,96.00
2019-01-06T05:55:22.858Z,95.90
2019-01-06T05:58:14.850Z,96.00
2019-01-06T06:01:06.266Z,96.10
2019-01-06T06:04:02.512Z,96.10
2019-01-06T06:06:58.658Z,96.10
2019-01-06T06:10:11.586Z,96.10
2019-01-06T06:13:07.763Z,96.10
2019-01-06T06:16:03.989Z,96.00
2019-01-06T06:19:19.759Z,96.00
2019-01-06T06:22:35.925Z,96.10
2019-01-06T06:25:35.831Z,96.00
2019-01-06T06:28:32.063Z,96.10
2019-01-06T06:31:28.274Z,96.20
2019-01-06T06:34:19.927Z,96.20
2019-01-06T06:37:16.096Z,96.20
2019-01-06T06:40:12.344Z,96.10
2019-01-06T06:43:06.138Z,96.20
2019-01-06T06:46:02.414Z,96.00
2019-01-06T06:49:08.284Z,96.10
2019-01-06T06:52:17.668Z,96.10
2019-01-06T06:55:30.647Z,96.20
2019-01-06T06:58:46.402Z,96.20
2019-01-06T07:02:57.258Z,96.30
2019-01-06T07:05:59.366Z,96.20
2019-01-06T07:08:55.636Z,96.20
2019-01-06T07:11:54.596Z,96.30
2019-01-06T07:14:48.634Z,96.40
2019-01-06T07:18:10.934Z,96.40
2019-01-06T07:21:19.286Z,96.40
2019-01-06T07:24:17.563Z,96.30
2019-01-06T07:27:23.395Z,96.40
2019-01-06T07:30:39.221Z,96.40
2019-01-06T07:33:25.486Z,96.40
2019-01-06T07:36:14.578Z,96.30
2019-01-06T07:39:10.776Z,96.50
2019-01-06T07:42:00.626Z,96.20
2019-01-06T07:44:57.444Z,96.20
2019-01-06T07:47:58.661Z,96.10
2019-01-06T07:50:50.338Z,95.90
2019-01-06T07:53:59.113Z,95.80
2019-01-06T07:56:55.375Z,95.80
2019-01-06T07:59:51.667Z,95.60
2019-01-06T08:02:42.069Z,95.50
2019-01-06T08:05:38.253Z,95.40
2019-01-06T08:08:34.342Z,95.30
2019-01-06T08:11:30.593Z,95.50
2019-01-06T08:14:28.405Z,95.00
2019-01-06T08:17:33.777Z,94.90
2019-01-06T08:20:29.980Z,94.80
2019-01-06T08:23:26.145Z,94.60
2019-01-06T08:26:39.051Z,94.40
2019-01-06T08:29:35.219Z,94.30
2019-01-06T08:32:44.749Z,94.10
2019-01-06T08:35:51.954Z,94.10
2019-01-06T08:38:48.200Z,94.10
2019-01-06T08:41:58.644Z,94.00
2019-01-06T08:44:56.341Z,93.90
2019-01-06T08:47:52.562Z,93.60
2019-01-06T08:50:44.096Z,93.50
2019-01-06T08:56:14.459Z,93.20
2019-01-06T08:59:10.699Z,93.20
2019-01-06T09:02:03.931Z,93.00
2019-01-06T09:05:00.162Z,93.00
2019-01-06T09:07:56.704Z,92.90
2019-01-06T09:10:52.908Z,92.90
2019-01-06T09:13:52.387Z,92.70
2019-01-06T09:17:05.204Z,92.70
2019-01-06T09:20:10.741Z,92.50
2019-01-06T09:23:06.948Z,92.40
2019-01-06T09:26:06.061Z,92.20
2019-01-06T09:29:09.185Z,92.10
2019-01-06T09:32:21.028Z,92.00
2019-01-06T09:35:17.237Z,91.40
2019-01-06T09:38:18.507Z,91.20
2019-01-06T09:41:23.114Z,91.50
2019-01-06T09:44:25.622Z,91.80
2019-01-06T09:47:31.543Z,91.30
2019-01-06T09:50:28.110Z,91.30
2019-01-06T09:53:40.546Z,91.00
2019-01-06T09:56:49.063Z,90.90
2019-01-06T09:59:58.473Z,90.60
2019-01-06T10:02:54.919Z,90.30
2019-01-06T10:05:51.133Z,90.30
2019-01-06T10:08:56.939Z,90.00
2019-01-06T10:11:53.702Z,89.70
2019-01-06T10:14:50.118Z,88.60
2019-01-06T10:17:46.352Z,87.70
2019-01-06T10:20:42.596Z,86.80
2019-01-06T10:23:45.364Z,86.70
2019-01-06T10:26:41.578Z,85.60
2019-01-06T10:29:37.795Z,84.80
2019-01-06T10:32:33.979Z,85.20
2019-01-06T10:35:46.629Z,85.20
2019-01-06T10:38:42.886Z,84.60
2019-01-06T10:41:33.282Z,85.30
2019-01-06T10:44:30.291Z,85.50
2019-01-06T10:47:26.566Z,85.20
2019-01-06T10:50:32.855Z,85.20
2019-01-06T10:53:42.214Z,85.50
2019-01-06T10:56:44.637Z,85.40
2019-01-06T10:59:40.913Z,85.00
2019-01-06T11:02:43.530Z,85.30
2019-01-06T11:05:35.889Z,84.40
2019-01-06T11:08:41.794Z,84.20
2019-01-06T11:11:38.041Z,84.20
2019-01-06T11:14:34.285Z,84.20
2019-01-06T11:17:30.514Z,84.60
2019-01-06T11:20:26.911Z,85.20
2019-01-06T11:23:26.227Z,85.30
2019-01-06T11:26:25.852Z,85.30
2019-01-06T11:29:20.751Z,86.00
2019-01-06T11:32:36.620Z,86.20
2019-01-06T11:35:32.846Z,86.00
2019-01-06T11:38:38.827Z,86.30
2019-01-06T11:41:35.762Z,86.00
2019-01-06T11:44:40.472Z,85.60
2019-01-06T11:47:37.377Z,85.10
2019-01-06T11:50:54.083Z,85.30
2019-01-06T11:53:51.326Z,85.80
2019-01-06T11:56:48.143Z,86.20
2019-01-06T11:59:48.035Z,86.40
2019-01-06T12:02:44.718Z,86.00
2019-01-06T12:05:44.298Z,84.80
2019-01-06T12:08:40.974Z,83.90
2019-01-06T12:11:40.162Z,84.00
2019-01-06T12:14:40.042Z,84.30
2019-01-06T12:17:40.130Z,83.70
2019-01-06T12:20:49.930Z,83.10
2019-01-06T12:23:50.728Z,83.80
2019-01-06T12:26:47.065Z,84.90
2019-01-06T12:29:46.347Z,85.10
2019-01-06T12:32:52.435Z,85.10
2019-01-06T12:36:01.836Z,85.20
2019-01-06T12:38:51.595Z,84.50
2019-01-06T12:42:01.294Z,83.90
2019-01-06T12:44:57.956Z,84.10
2019-01-06T12:47:57.771Z,83.20
2019-01-06T12:50:55.253Z,82.80
2019-01-06T12:53:44.667Z,82.50
2019-01-06T12:56:41.407Z,82.90
2019-01-06T12:59:38.498Z,82.50
2019-01-06T13:02:36.340Z,83.20
2019-01-06T13:05:16.215Z,84.10
2019-01-06T13:08:08.338Z,85.20
2019-01-06T13:11:15.145Z,85.70
2019-01-06T13:14:06.332Z,86.50
2019-01-06T13:17:02.727Z,87.00
2019-01-06T13:19:59.399Z,88.10
2019-01-06T13:22:56.298Z,88.70
2019-01-06T13:26:04.460Z,89.10
2019-01-06T13:29:20.813Z,90.00
2019-01-06T13:32:17.714Z,89.80
2019-01-06T13:35:24.294Z,90.20
2019-01-06T13:38:29.213Z,90.40
2019-01-06T13:41:22.274Z,90.60
2019-01-06T13:44:35.627Z,90.90
2019-01-06T13:47:34.609Z,91.00
2019-01-06T13:50:30.917Z,91.10
2019-01-06T13:53:34.414Z,91.00
2019-01-06T13:56:34.162Z,91.00
2019-01-06T13:59:41.078Z,91.10
2019-01-06T14:02:37.336Z,91.20
2019-01-06T14:05:33.485Z,91.20
2019-01-06T14:08:32.887Z,91.40
2019-01-06T14:11:25.994Z,91.30
2019-01-06T14:14:24.686Z,91.40
2019-01-06T14:17:21.654Z,91.50
2019-01-06T14:20:17.990Z,91.80
2019-01-06T14:23:14.271Z,91.60
2019-01-06T14:26:26.916Z,91.60
2019-01-06T14:29:23.202Z,91.60
2019-01-06T14:32:23.990Z,91.60
2019-01-06T14:35:20.253Z,91.50
2019-01-06T14:38:16.527Z,91.40
2019-01-06T14:41:32.592Z,91.50
2019-01-06T14:44:28.815Z,91.40
2019-01-06T14:47:34.694Z,91.50
2019-01-06T14:50:47.596Z,91.60
2019-01-06T14:53:43.806Z,91.60
2019-01-06T14:56:49.870Z,91.50
2019-01-06T14:59:49.576Z,91.50
2019-01-06T15:02:53.339Z,91.50
2019-01-06T15:05:50.309Z,91.60
2019-01-06T15:08:49.358Z,91.60
2019-01-06T15:11:51.894Z,91.60
2019-01-06T15:15:04.135Z,91.60
2019-01-06T15:18:00.669Z,91.60
2019-01-06T15:21:03.411Z,91.90
2019-01-06T15:24:12.743Z,91.70
2019-01-06T15:27:22.219Z,91.90
2019-01-06T15:30:18.901Z,91.90
2019-01-06T15:33:15.291Z,92.00
2019-01-06T15:36:11.684Z,92.00
2019-01-06T15:39:11.530Z,92.10
2019-01-06T15:42:08.155Z,92.10
2019-01-06T15:45:14.621Z,92.20
2019-01-06T15:48:27.879Z,92.20
2019-01-06T15:51:24.254Z,92.30
2019-01-06T15:54:20.542Z,92.30
2019-01-06T15:57:13.460Z,92.40
2019-01-06T16:00:10.323Z,92.50
2019-01-06T16:03:26.746Z,92.60
2019-01-06T16:06:39.198Z,92.70
2019-01-06T16:09:35.584Z,92.70
2019-01-06T16:12:31.612Z,92.80
2019-01-06T16:15:29.131Z,92.90
2019-01-06T16:18:36.344Z,92.90
2019-01-06T16:21:34.443Z,93.10
2019-01-06T16:24:31.457Z,93.30
2019-01-06T16:27:34.431Z,93.50
2019-01-06T16:30:47.088Z,93.60
2019-01-06T16:33:53.342Z,93.80
2019-01-06T16:36:55.499Z,93.70
2019-01-06T16:39:48.181Z,93.70
2019-01-06T16:42:36.321Z,93.70
2019-01-06T16:45:32.497Z,93.80
2019-01-06T16:48:28.746Z,93.80
2019-01-06T16:51:41.137Z,93.90
2019-01-06T16:54:40.900Z,94.00
2019-01-06T16:57:37.623Z,94.00
2019-01-06T17:00:34.571Z,93.90
2019-01-06T17:03:33.835Z,94.00
2019-01-06T17:06:31.123Z,94.00
2019-01-06T17:09:32.468Z,94.10
2019-01-06T17:12:29.087Z,94.20
2019-01-06T17:15:29.150Z,94.20
2019-01-06T17:18:23.192Z,94.20
2019-01-06T17:21:19.385Z,94.20
2019-01-06T17:24:02.465Z,94.10
2019-01-06T17:26:58.638Z,94.00
2019-01-06T17:29:49.222Z,94.10
2019-01-06T17:32:45.431Z,94.10
2019-01-06T17:35:36.365Z,94.20
2019-01-06T17:38:32.568Z,94.10
2019-01-06T17:41:28.801Z,94.20
2019-01-06T17:44:25.002Z,94.30
2019-01-06T17:47:20.950Z,94.30
2019-01-06T17:50:20.402Z,94.40
2019-01-06T17:53:16.535Z,94.50
2019-01-06T17:56:32.532Z,94.70
2019-01-06T17:59:25.948Z,94.70
2019-01-06T18:02:28.468Z,94.40
2019-01-06T18:05:32.182Z,94.70
2019-01-06T18:08:28.216Z,95.20
2019-01-06T18:11:27.974Z,95.00
2019-01-06T18:14:24.160Z,94.70
2019-01-06T18:17:30.391Z,94.70
2019-01-06T18:20:22.950Z,94.70
2019-01-06T18:23:18.928Z,94.70
2019-01-06T18:26:28.193Z,95.10
2019-01-06T18:29:31.932Z,95.50
2019-01-06T18:32:29.852Z,95.70
2019-01-06T18:35:26.060Z,95.90
2019-01-06T18:38:22.216Z,96.00
2019-01-06T18:41:28.153Z,95.80
2019-01-06T18:44:30.107Z,95.50
2019-01-06T18:47:26.293Z,95.30
2019-01-06T18:50:17.330Z,95.20
2019-01-06T18:53:13.483Z,95.10
2019-01-06T18:56:09.643Z,94.90
2019-01-06T18:59:15.558Z,94.80
2019-01-06T19:02:11.915Z,94.80
2019-01-06T19:05:08.390Z,94.80
2019-01-06T19:08:23.886Z,94.80
2019-01-06T19:11:20.257Z,94.90
2019-01-06T19:14:16.237Z,94.90
2019-01-06T19:17:10.659Z,95.00
2019-01-06T19:20:06.933Z,94.90
2019-01-06T19:23:03.162Z,94.90
2019-01-06T19:26:09.025Z,94.90
2019-01-06T19:29:05.275Z,94.90
2019-01-06T19:32:07.111Z,95.00
2019-01-06T19:35:04.261Z,95.00
2019-01-06T19:38:00.447Z,95.00
2019-01-06T19:40:56.699Z,95.10
2019-01-06T19:44:01.054Z,95.10
2019-01-06T19:47:13.442Z,95.10
2019-01-06T19:50:09.639Z,95.10
2019-01-06T19:53:13.593Z,95.10
2019-01-06T19:56:12.642Z,95.10
2019-01-06T19:59:08.845Z,95.10
2019-01-06T20:02:05.024Z,95.20
2019-01-06T20:05:01.261Z,95.10
2019-01-06T20:08:00.659Z,95.10
2019-01-06T20:10:56.893Z,95.20
2019-01-06T20:13:53.034Z,95.30
2019-01-06T20:16:47.130Z,95.30
2019-01-06T20:19:46.003Z,95.20
2019-01-06T20:22:40.091Z,95.20
2019-01-06T20:25:36.308Z,95.20
2019-01-06T20:28:30.275Z,95.20
2019-01-06T20:31:26.552Z,95.20
2019-01-06T20:34:22.740Z,95.40
2019-01-06T20:37:35.412Z,95.40
2019-01-06T20:40:41.464Z,95.40
2019-01-06T20:43:37.630Z,95.40
2019-01-06T20:46:36.638Z,95.50
2019-01-06T20:49:32.825Z,95.60
2019-01-06T20:52:27.037Z,95.60
2019-01-06T20:55:36.618Z,95.60
2019-01-06T20:58:47.528Z,95.70
2019-01-06T21:01:43.679Z,95.70
2019-01-06T21:04:39.861Z,95.70
